This is the latest recevied weather packets stored in our database for station/object WD7OO. If no packets are shown the sender has not sent any weather packets the latest 10 day(s).
| Time | Temp. | Humidity | Pressure | Rain* | Wind** | Luminosity | Snow |
|---|---|---|---|---|---|---|---|
| 1777299167 | 15° C | 80% | 1014.1 hPa | 0 mm | - | 229 W/m² | - |
| 1777298865 | 14.44° C | 80% | 1013.9 hPa | 0 mm | - | 333 W/m² | - |
| 1777298561 | 14.44° C | 80% | 1014.1 hPa | 0 mm | - | 310 W/m² | - |
| 1777298258 | 13.89° C | 81% | 1013.9 hPa | 0 mm | - | 324 W/m² | - |
| 1777297953 | 13.89° C | 82% | 1014.1 hPa | 0 mm | - | 312 W/m² | - |
| 1777297650 | 13.33° C | 83% | 1014.1 hPa | 0 mm | - | 301 W/m² | - |
| 1777297347 | 13.33° C | 85% | 1014.3 hPa | 0 mm | - | 232 W/m² | - |
| 1777297044 | 12.78° C | 85% | 1014.7 hPa | 0 mm | - | 187 W/m² | - |
| 1777296741 | 12.78° C | 85% | 1014.8 hPa | 0 mm | - | 164 W/m² | - |
| 1777296436 | 12.78° C | 86% | 1015.2 hPa | 0 mm | - | 163 W/m² | - |
| 1777296133 | 12.22° C | 86% | 1015.3 hPa | 0 mm | - | 149 W/m² | - |
| 1777295829 | 12.22° C | 87% | 1015.3 hPa | 0 mm | - | 140 W/m² | - |
| 1777295527 | 12.22° C | 87% | 1015.4 hPa | 0 mm | - | 134 W/m² | - |
| 1777295224 | 12.22° C | 88% | 1015.3 hPa | 0 mm | - | 131 W/m² | - |
| 1777294922 | 11.67° C | 88% | 1015.3 hPa | 0 mm | - | 121 W/m² | - |
| 1777294616 | 11.67° C | 88% | 1015.4 hPa | 0 mm | - | 104 W/m² | - |
| 1777294313 | 11.67° C | 88% | 1015.6 hPa | 0 mm | - | 99 W/m² | - |
| 1777294010 | 11.67° C | 89% | 1015.5 hPa | 0 mm | - | 98 W/m² | - |
| 1777293706 | 11.67° C | 89% | 1015.3 hPa | 0 mm | - | 110 W/m² | - |
| 1777293401 | 11.11° C | 89% | 1015.4 hPa | 0 mm | - | 98 W/m² | - |
| 1777293097 | 11.11° C | 90% | 1015.8 hPa | 0 mm | - | 88 W/m² | - |
| 1777292796 | 11.11° C | 90% | 1015.8 hPa | 0 mm | - | 86 W/m² | - |
| 1777292493 | 11.11° C | 91% | 1015.6 hPa | 0 mm | - | 92 W/m² | - |
| 1777292189 | 10.56° C | 91% | 1015.8 hPa | 0 mm | - | 88 W/m² | - |
| 1777291885 | 10.56° C | 91% | 1015.6 hPa | 0 mm | - | 81 W/m² | - |
* Rain latest hour (hover to see other rain measurements)
** Current wind speed in m/s (hover to see current wind gust speed)